CheckWX is a tool to help pilots better visualize weather data.  It is not intended as a substitute for an official pre-flight weather briefing.

18:03:15 UTC

KEST METAR
Estherville Municipal Airport
Estherville, Iowa, USA
Current

11 mins ago

KEST 241752Z AUTO 21014G21KT 10SM CLR 19/04 A2983 RMK AO2 PK WND 20027/1704 SLP102 T01940039 10194 20028 58019
Observed
Apr-24 @ 17:52 UTC
Wind
  • 210° at 14 KTS
  • Gusting to 21 KTS
Visibility
10 SM
Flight Rules
VFR
Cloud Levels
  • Clear skies
Temperature
19°C / 66°F
Dewpoint
C / 39°F
Humidity
37%
Altimeter
29.83" Hg
Pressure
1010.12 hPa
Previous

1 hour ago

KEST 241652Z AUTO 19018G24KT 10SM CLR 18/04 A2985 RMK AO2 SLP110 T01780039
Observed
Apr-24 @ 16:52 UTC
Wind
  • 190° at 18 KTS
  • Gusting to 24 KTS
Visibility
10 SM
Flight Rules
VFR
Cloud Levels
  • Clear skies
Temperature
18°C / 64°F
Dewpoint
C / 39°F
Humidity
40%
Altimeter
29.85" Hg
Pressure
1010.82 hPa
Previous

2 hours ago

KEST 241552Z AUTO 20015G23KT 10SM CLR 17/04 A2988 RMK AO2 PK WND 19026/1512 SLP120 T01670039
Observed
Apr-24 @ 15:52 UTC
Wind
  • 200° at 15 KTS
  • Gusting to 23 KTS
Visibility
10 SM
Flight Rules
VFR
Cloud Levels
  • Clear skies
Temperature
17°C / 63°F
Dewpoint
C / 39°F
Humidity
42%
Altimeter
29.88" Hg
Pressure
1011.82 hPa